sensor_id;sensor_type;location;lat;lon;timestamp;temperature;humidity
15394;DHT22;7795;47.986;11.868;2023-05-07T00:01:27;15.40;73.70
15394;DHT22;7795;47.986;11.868;2023-05-07T00:03:53;15.40;73.80
15394;DHT22;7795;47.986;11.868;2023-05-07T00:06:19;15.40;73.80
15394;DHT22;7795;47.986;11.868;2023-05-07T00:08:44;15.40;73.90
15394;DHT22;7795;47.986;11.868;2023-05-07T00:11:10;15.40;73.90
15394;DHT22;7795;47.986;11.868;2023-05-07T00:13:36;15.30;73.80
15394;DHT22;7795;47.986;11.868;2023-05-07T00:16:03;15.30;73.90
15394;DHT22;7795;47.986;11.868;2023-05-07T00:18:30;15.30;74.00
15394;DHT22;7795;47.986;11.868;2023-05-07T00:20:56;15.30;74.20
15394;DHT22;7795;47.986;11.868;2023-05-07T00:23:21;15.20;74.10
15394;DHT22;7795;47.986;11.868;2023-05-07T00:25:47;15.20;74.10
15394;DHT22;7795;47.986;11.868;2023-05-07T00:28:13;15.20;74.20
15394;DHT22;7795;47.986;11.868;2023-05-07T00:30:39;15.20;75.00
15394;DHT22;7795;47.986;11.868;2023-05-07T00:33:04;15.10;74.10
15394;DHT22;7795;47.986;11.868;2023-05-07T00:35:32;15.10;74.90
15394;DHT22;7795;47.986;11.868;2023-05-07T00:37:57;15.10;74.30
15394;DHT22;7795;47.986;11.868;2023-05-07T00:40:23;15.10;74.40
15394;DHT22;7795;47.986;11.868;2023-05-07T00:42:49;15.00;74.40
15394;DHT22;7795;47.986;11.868;2023-05-07T00:45:15;15.00;74.50
15394;DHT22;7795;47.986;11.868;2023-05-07T00:47:41;15.00;74.60
15394;DHT22;7795;47.986;11.868;2023-05-07T00:50:08;15.00;74.60
15394;DHT22;7795;47.986;11.868;2023-05-07T00:52:38;15.00;74.70
15394;DHT22;7795;47.986;11.868;2023-05-07T00:55:06;15.00;74.70
15394;DHT22;7795;47.986;11.868;2023-05-07T00:57:33;15.00;74.80
15394;DHT22;7795;47.986;11.868;2023-05-07T01:00:02;15.00;75.00
15394;DHT22;7795;47.986;11.868;2023-05-07T01:02:28;15.00;75.10
15394;DHT22;7795;47.986;11.868;2023-05-07T01:04:55;15.00;75.10
15394;DHT22;7795;47.986;11.868;2023-05-07T01:07:21;15.00;75.30
15394;DHT22;7795;47.986;11.868;2023-05-07T01:09:48;15.00;75.20
15394;DHT22;7795;47.986;11.868;2023-05-07T01:12:14;15.00;75.30
15394;DHT22;7795;47.986;11.868;2023-05-07T01:14:41;15.00;75.40
15394;DHT22;7795;47.986;11.868;2023-05-07T01:17:07;15.00;75.30
15394;DHT22;7795;47.986;11.868;2023-05-07T01:19:33;15.00;75.40
15394;DHT22;7795;47.986;11.868;2023-05-07T01:22:02;15.00;75.30
15394;DHT22;7795;47.986;11.868;2023-05-07T01:24:31;15.00;75.50
15394;DHT22;7795;47.986;11.868;2023-05-07T01:26:57;15.00;75.50
15394;DHT22;7795;47.986;11.868;2023-05-07T01:29:23;15.00;75.40
15394;DHT22;7795;47.986;11.868;2023-05-07T01:31:50;15.00;75.30
15394;DHT22;7795;47.986;11.868;2023-05-07T01:34:17;15.00;75.30
15394;DHT22;7795;47.986;11.868;2023-05-07T01:36:44;15.00;75.20
15394;DHT22;7795;47.986;11.868;2023-05-07T01:39:10;14.90;75.10
15394;DHT22;7795;47.986;11.868;2023-05-07T01:41:37;14.90;75.10
15394;DHT22;7795;47.986;11.868;2023-05-07T01:44:03;14.80;75.00
15394;DHT22;7795;47.986;11.868;2023-05-07T01:46:31;14.80;75.00
15394;DHT22;7795;47.986;11.868;2023-05-07T01:48:58;14.80;75.10
15394;DHT22;7795;47.986;11.868;2023-05-07T01:51:24;14.80;75.00
15394;DHT22;7795;47.986;11.868;2023-05-07T01:53:50;14.80;75.00
15394;DHT22;7795;47.986;11.868;2023-05-07T01:56:17;14.80;76.00
15394;DHT22;7795;47.986;11.868;2023-05-07T01:58:45;14.70;75.20
15394;DHT22;7795;47.986;11.868;2023-05-07T02:01:13;14.70;75.40
15394;DHT22;7795;47.986;11.868;2023-05-07T02:03:38;14.70;75.40
15394;DHT22;7795;47.986;11.868;2023-05-07T02:06:04;14.70;75.40
15394;DHT22;7795;47.986;11.868;2023-05-07T02:08:30;14.70;75.50
15394;DHT22;7795;47.986;11.868;2023-05-07T02:10:56;14.70;75.60
15394;DHT22;7795;47.986;11.868;2023-05-07T02:13:22;14.70;75.70
15394;DHT22;7795;47.986;11.868;2023-05-07T02:15:51;14.60;75.70
15394;DHT22;7795;47.986;11.868;2023-05-07T02:18:17;14.60;75.70
15394;DHT22;7795;47.986;11.868;2023-05-07T02:20:43;14.60;75.70
15394;DHT22;7795;47.986;11.868;2023-05-07T02:23:09;14.60;75.70
15394;DHT22;7795;47.986;11.868;2023-05-07T02:25:34;14.60;75.70
15394;DHT22;7795;47.986;11.868;2023-05-07T02:28:00;14.60;75.70
15394;DHT22;7795;47.986;11.868;2023-05-07T02:30:26;14.60;75.70
15394;DHT22;7795;47.986;11.868;2023-05-07T02:32:53;14.60;75.80
15394;DHT22;7795;47.986;11.868;2023-05-07T02:35:19;14.60;75.80
15394;DHT22;7795;47.986;11.868;2023-05-07T02:37:44;14.60;75.70
15394;DHT22;7795;47.986;11.868;2023-05-07T02:40:11;14.50;75.70
15394;DHT22;7795;47.986;11.868;2023-05-07T02:42:37;14.50;75.70
15394;DHT22;7795;47.986;11.868;2023-05-07T02:45:03;14.50;75.60
15394;DHT22;7795;47.986;11.868;2023-05-07T02:47:29;14.40;75.60
15394;DHT22;7795;47.986;11.868;2023-05-07T02:49:56;14.40;75.50
15394;DHT22;7795;47.986;11.868;2023-05-07T02:52:25;14.40;76.40
15394;DHT22;7795;47.986;11.868;2023-05-07T02:54:50;14.40;75.70
15394;DHT22;7795;47.986;11.868;2023-05-07T02:57:16;14.40;75.80
15394;DHT22;7795;47.986;11.868;2023-05-07T02:59:42;14.30;76.60
15394;DHT22;7795;47.986;11.868;2023-05-07T03:02:08;14.30;75.90
15394;DHT22;7795;47.986;11.868;2023-05-07T03:04:34;14.30;76.10
15394;DHT22;7795;47.986;11.868;2023-05-07T03:07:01;14.20;76.10
15394;DHT22;7795;47.986;11.868;2023-05-07T03:09:27;14.20;76.30
15394;DHT22;7795;47.986;11.868;2023-05-07T03:11:52;14.20;76.30
15394;DHT22;7795;47.986;11.868;2023-05-07T03:14:18;14.20;76.30
15394;DHT22;7795;47.986;11.868;2023-05-07T03:16:44;14.20;76.40
15394;DHT22;7795;47.986;11.868;2023-05-07T03:19:10;14.20;76.40
15394;DHT22;7795;47.986;11.868;2023-05-07T03:21:35;14.20;76.50
15394;DHT22;7795;47.986;11.868;2023-05-07T03:24:03;14.20;76.60
15394;DHT22;7795;47.986;11.868;2023-05-07T03:26:29;14.20;76.70
15394;DHT22;7795;47.986;11.868;2023-05-07T03:28:54;14.20;76.70
15394;DHT22;7795;47.986;11.868;2023-05-07T03:31:20;14.20;76.70
15394;DHT22;7795;47.986;11.868;2023-05-07T03:33:50;14.10;77.40
15394;DHT22;7795;47.986;11.868;2023-05-07T03:36:16;14.20;76.90
15394;DHT22;7795;47.986;11.868;2023-05-07T03:38:42;14.10;76.60
15394;DHT22;7795;47.986;11.868;2023-05-07T03:41:09;14.10;76.60
15394;DHT22;7795;47.986;11.868;2023-05-07T03:43:35;14.10;76.70
15394;DHT22;7795;47.986;11.868;2023-05-07T03:46:01;14.10;76.60
15394;DHT22;7795;47.986;11.868;2023-05-07T03:48:26;14.10;76.70
15394;DHT22;7795;47.986;11.868;2023-05-07T03:50:52;14.10;76.70
15394;DHT22;7795;47.986;11.868;2023-05-07T03:53:18;14.10;76.90
15394;DHT22;7795;47.986;11.868;2023-05-07T03:55:44;14.00;76.90
15394;DHT22;7795;47.986;11.868;2023-05-07T03:58:11;14.00;76.80
15394;DHT22;7795;47.986;11.868;2023-05-07T04:00:36;14.00;76.80
15394;DHT22;7795;47.986;11.868;2023-05-07T04:03:06;14.00;76.70
15394;DHT22;7795;47.986;11.868;2023-05-07T04:05:31;13.90;76.70
15394;DHT22;7795;47.986;11.868;2023-05-07T04:07:57;13.90;76.70
15394;DHT22;7795;47.986;11.868;2023-05-07T04:10:23;13.90;76.90
15394;DHT22;7795;47.986;11.868;2023-05-07T04:12:49;13.90;76.80
15394;DHT22;7795;47.986;11.868;2023-05-07T04:15:16;13.90;76.90
15394;DHT22;7795;47.986;11.868;2023-05-07T04:17:42;13.90;76.90
15394;DHT22;7795;47.986;11.868;2023-05-07T04:20:10;13.80;76.90
15394;DHT22;7795;47.986;11.868;2023-05-07T04:22:36;13.80;77.00
15394;DHT22;7795;47.986;11.868;2023-05-07T04:25:02;13.80;77.10
15394;DHT22;7795;47.986;11.868;2023-05-07T04:27:28;13.80;77.20
15394;DHT22;7795;47.986;11.868;2023-05-07T04:29:54;13.80;77.20
15394;DHT22;7795;47.986;11.868;2023-05-07T04:32:22;13.80;77.30
15394;DHT22;7795;47.986;11.868;2023-05-07T04:34:50;13.80;77.40
15394;DHT22;7795;47.986;11.868;2023-05-07T04:37:16;13.80;77.40
15394;DHT22;7795;47.986;11.868;2023-05-07T04:39:42;13.90;77.50
15394;DHT22;7795;47.986;11.868;2023-05-07T04:42:08;13.80;77.50
15394;DHT22;7795;47.986;11.868;2023-05-07T04:44:34;13.90;77.60
15394;DHT22;7795;47.986;11.868;2023-05-07T04:47:00;13.90;77.70
15394;DHT22;7795;47.986;11.868;2023-05-07T04:49:27;13.90;77.70
15394;DHT22;7795;47.986;11.868;2023-05-07T04:51:53;13.90;77.80
15394;DHT22;7795;47.986;11.868;2023-05-07T04:54:18;14.00;77.90
15394;DHT22;7795;47.986;11.868;2023-05-07T04:56:44;14.00;77.90
15394;DHT22;7795;47.986;11.868;2023-05-07T04:59:10;14.00;78.00
15394;DHT22;7795;47.986;11.868;2023-05-07T05:01:35;14.00;78.00
15394;DHT22;7795;47.986;11.868;2023-05-07T05:04:01;14.10;78.00
15394;DHT22;7795;47.986;11.868;2023-05-07T05:06:28;14.10;77.90
15394;DHT22;7795;47.986;11.868;2023-05-07T05:08:54;14.10;77.90
15394;DHT22;7795;47.986;11.868;2023-05-07T05:11:20;14.20;77.90
15394;DHT22;7795;47.986;11.868;2023-05-07T05:13:46;14.20;77.90
15394;DHT22;7795;47.986;11.868;2023-05-07T05:16:14;14.20;77.90
15394;DHT22;7795;47.986;11.868;2023-05-07T05:18:40;14.30;78.10
15394;DHT22;7795;47.986;11.868;2023-05-07T05:21:06;14.30;78.10
15394;DHT22;7795;47.986;11.868;2023-05-07T05:23:33;14.40;78.30
15394;DHT22;7795;47.986;11.868;2023-05-07T05:25:59;14.50;78.40
15394;DHT22;7795;47.986;11.868;2023-05-07T05:28:25;14.60;78.40
15394;DHT22;7795;47.986;11.868;2023-05-07T05:30:51;14.60;78.40
15394;DHT22;7795;47.986;11.868;2023-05-07T05:33:16;14.70;78.40
15394;DHT22;7795;47.986;11.868;2023-05-07T05:35:42;14.90;78.40
15394;DHT22;7795;47.986;11.868;2023-05-07T05:38:08;15.00;78.40
15394;DHT22;7795;47.986;11.868;2023-05-07T05:40:35;15.10;78.40
15394;DHT22;7795;47.986;11.868;2023-05-07T05:43:01;15.20;78.40
15394;DHT22;7795;47.986;11.868;2023-05-07T05:45:26;15.40;78.50
15394;DHT22;7795;47.986;11.868;2023-05-07T05:47:52;15.50;78.60
15394;DHT22;7795;47.986;11.868;2023-05-07T05:50:18;15.60;78.50
15394;DHT22;7795;47.986;11.868;2023-05-07T05:52:44;15.80;78.50
15394;DHT22;7795;47.986;11.868;2023-05-07T05:55:10;16.00;78.40
15394;DHT22;7795;47.986;11.868;2023-05-07T05:57:37;16.10;78.20
15394;DHT22;7795;47.986;11.868;2023-05-07T06:00:04;16.20;78.00
15394;DHT22;7795;47.986;11.868;2023-05-07T06:02:30;16.40;77.80
15394;DHT22;7795;47.986;11.868;2023-05-07T06:04:56;16.50;77.60
15394;DHT22;7795;47.986;11.868;2023-05-07T06:07:22;16.60;77.50
15394;DHT22;7795;47.986;11.868;2023-05-07T06:09:47;16.70;77.40
15394;DHT22;7795;47.986;11.868;2023-05-07T06:12:13;16.90;77.40
15394;DHT22;7795;47.986;11.868;2023-05-07T06:14:42;17.00;77.20
15394;DHT22;7795;47.986;11.868;2023-05-07T06:17:08;17.10;77.30
15394;DHT22;7795;47.986;11.868;2023-05-07T06:19:34;17.20;77.10
15394;DHT22;7795;47.986;11.868;2023-05-07T06:22:00;17.40;77.10
15394;DHT22;7795;47.986;11.868;2023-05-07T06:24:27;17.50;77.00
15394;DHT22;7795;47.986;11.868;2023-05-07T06:26:53;17.70;77.00
15394;DHT22;7795;47.986;11.868;2023-05-07T06:29:18;17.70;76.80
15394;DHT22;7795;47.986;11.868;2023-05-07T06:31:45;17.90;76.80
15394;DHT22;7795;47.986;11.868;2023-05-07T06:34:11;18.00;76.70
15394;DHT22;7795;47.986;11.868;2023-05-07T06:36:39;18.10;76.70
15394;DHT22;7795;47.986;11.868;2023-05-07T06:39:05;18.20;76.60
15394;DHT22;7795;47.986;11.868;2023-05-07T06:41:31;18.30;77.20
15394;DHT22;7795;47.986;11.868;2023-05-07T06:43:57;18.50;76.40
15394;DHT22;7795;47.986;11.868;2023-05-07T06:46:22;18.60;76.30
15394;DHT22;7795;47.986;11.868;2023-05-07T06:48:50;18.60;76.10
15394;DHT22;7795;47.986;11.868;2023-05-07T06:51:15;18.70;76.00
15394;DHT22;7795;47.986;11.868;2023-05-07T06:53:41;18.80;75.80
15394;DHT22;7795;47.986;11.868;2023-05-07T06:56:07;18.80;75.70
15394;DHT22;7795;47.986;11.868;2023-05-07T06:58:33;18.90;75.60
15394;DHT22;7795;47.986;11.868;2023-05-07T07:00:58;19.00;75.70
15394;DHT22;7795;47.986;11.868;2023-05-07T07:03:24;19.00;75.40
15394;DHT22;7795;47.986;11.868;2023-05-07T07:05:53;19.10;75.40
15394;DHT22;7795;47.986;11.868;2023-05-07T07:08:19;19.10;75.30
15394;DHT22;7795;47.986;11.868;2023-05-07T07:10:46;19.10;75.20
15394;DHT22;7795;47.986;11.868;2023-05-07T07:13:12;19.20;75.20
15394;DHT22;7795;47.986;11.868;2023-05-07T07:15:38;19.20;75.10
15394;DHT22;7795;47.986;11.868;2023-05-07T07:18:04;19.30;75.10
15394;DHT22;7795;47.986;11.868;2023-05-07T07:20:30;19.30;75.10
15394;DHT22;7795;47.986;11.868;2023-05-07T07:22:57;19.30;75.00
15394;DHT22;7795;47.986;11.868;2023-05-07T07:25:23;19.40;75.00
15394;DHT22;7795;47.986;11.868;2023-05-07T07:27:49;19.50;74.90
15394;DHT22;7795;47.986;11.868;2023-05-07T07:30:15;19.50;74.80
15394;DHT22;7795;47.986;11.868;2023-05-07T07:32:41;19.60;74.80
15394;DHT22;7795;47.986;11.868;2023-05-07T07:35:07;19.60;74.60
15394;DHT22;7795;47.986;11.868;2023-05-07T07:37:33;19.70;74.60
15394;DHT22;7795;47.986;11.868;2023-05-07T07:40:01;19.70;74.40
15394;DHT22;7795;47.986;11.868;2023-05-07T07:42:26;19.80;74.30
15394;DHT22;7795;47.986;11.868;2023-05-07T07:44:53;19.80;75.10
15394;DHT22;7795;47.986;11.868;2023-05-07T07:47:19;19.90;74.00
15394;DHT22;7795;47.986;11.868;2023-05-07T07:49:45;20.00;73.50
15394;DHT22;7795;47.986;11.868;2023-05-07T07:52:10;20.00;73.30
15394;DHT22;7795;47.986;11.868;2023-05-07T07:54:36;20.00;73.20
15394;DHT22;7795;47.986;11.868;2023-05-07T07:57:03;20.10;73.20
15394;DHT22;7795;47.986;11.868;2023-05-07T07:59:29;20.10;72.90
15394;DHT22;7795;47.986;11.868;2023-05-07T08:01:55;20.20;72.90
15394;DHT22;7795;47.986;11.868;2023-05-07T08:04:22;20.20;72.90
15394;DHT22;7795;47.986;11.868;2023-05-07T08:06:48;20.30;73.00
15394;DHT22;7795;47.986;11.868;2023-05-07T08:09:14;20.30;72.80
15394;DHT22;7795;47.986;11.868;2023-05-07T08:11:39;20.40;72.80
15394;DHT22;7795;47.986;11.868;2023-05-07T08:14:06;20.40;72.80
15394;DHT22;7795;47.986;11.868;2023-05-07T08:16:32;20.50;72.50
15394;DHT22;7795;47.986;11.868;2023-05-07T08:18:58;20.60;72.50
15394;DHT22;7795;47.986;11.868;2023-05-07T08:21:24;20.60;72.40
15394;DHT22;7795;47.986;11.868;2023-05-07T08:23:49;20.70;72.20
15394;DHT22;7795;47.986;11.868;2023-05-07T08:26:15;20.80;72.30
15394;DHT22;7795;47.986;11.868;2023-05-07T08:28:41;20.80;71.90
15394;DHT22;7795;47.986;11.868;2023-05-07T08:31:08;20.90;71.90
15394;DHT22;7795;47.986;11.868;2023-05-07T08:33:33;20.90;71.60
15394;DHT22;7795;47.986;11.868;2023-05-07T08:35:59;21.00;71.60
15394;DHT22;7795;47.986;11.868;2023-05-07T08:38:25;21.10;71.50
15394;DHT22;7795;47.986;11.868;2023-05-07T08:40:51;21.10;72.00
15394;DHT22;7795;47.986;11.868;2023-05-07T08:43:17;21.20;71.20
15394;DHT22;7795;47.986;11.868;2023-05-07T08:45:45;21.30;71.20
15394;DHT22;7795;47.986;11.868;2023-05-07T08:48:16;21.30;71.10
15394;DHT22;7795;47.986;11.868;2023-05-07T08:50:42;21.40;71.10
15394;DHT22;7795;47.986;11.868;2023-05-07T08:53:08;21.40;70.90
15394;DHT22;7795;47.986;11.868;2023-05-07T08:55:34;21.50;70.60
15394;DHT22;7795;47.986;11.868;2023-05-07T08:58:00;21.60;70.10
15394;DHT22;7795;47.986;11.868;2023-05-07T09:00:26;21.60;69.70
15394;DHT22;7795;47.986;11.868;2023-05-07T09:02:52;21.70;69.70
15394;DHT22;7795;47.986;11.868;2023-05-07T09:05:19;21.70;69.50
15394;DHT22;7795;47.986;11.868;2023-05-07T09:07:45;21.80;69.60
15394;DHT22;7795;47.986;11.868;2023-05-07T09:10:12;21.90;70.50
15394;DHT22;7795;47.986;11.868;2023-05-07T09:12:39;21.90;69.70
15394;DHT22;7795;47.986;11.868;2023-05-07T09:15:06;22.00;69.50
15394;DHT22;7795;47.986;11.868;2023-05-07T09:17:32;22.00;68.90
15394;DHT22;7795;47.986;11.868;2023-05-07T09:20:02;22.10;68.60
15394;DHT22;7795;47.986;11.868;2023-05-07T09:22:31;22.20;68.00
15394;DHT22;7795;47.986;11.868;2023-05-07T09:24:57;22.20;67.90
15394;DHT22;7795;47.986;11.868;2023-05-07T09:27:22;22.20;68.10
15394;DHT22;7795;47.986;11.868;2023-05-07T09:29:48;22.30;67.60
15394;DHT22;7795;47.986;11.868;2023-05-07T09:32:14;22.40;67.10
15394;DHT22;7795;47.986;11.868;2023-05-07T09:34:42;22.40;66.80
15394;DHT22;7795;47.986;11.868;2023-05-07T09:37:07;22.50;66.50
15394;DHT22;7795;47.986;11.868;2023-05-07T09:39:42;22.50;66.20
15394;DHT22;7795;47.986;11.868;2023-05-07T09:42:08;22.50;65.90
15394;DHT22;7795;47.986;11.868;2023-05-07T09:44:34;22.60;66.70
15394;DHT22;7795;47.986;11.868;2023-05-07T09:47:00;22.70;66.70
15394;DHT22;7795;47.986;11.868;2023-05-07T09:49:30;22.80;66.90
15394;DHT22;7795;47.986;11.868;2023-05-07T09:51:55;22.90;66.20
15394;DHT22;7795;47.986;11.868;2023-05-07T09:54:22;23.00;66.20
15394;DHT22;7795;47.986;11.868;2023-05-07T09:56:49;23.00;65.50
15394;DHT22;7795;47.986;11.868;2023-05-07T09:59:17;23.10;64.90
15394;DHT22;7795;47.986;11.868;2023-05-07T10:01:44;23.10;64.10
15394;DHT22;7795;47.986;11.868;2023-05-07T10:04:10;23.20;63.50
15394;DHT22;7795;47.986;11.868;2023-05-07T10:06:37;23.30;63.70
15394;DHT22;7795;47.986;11.868;2023-05-07T10:09:03;23.30;63.40
15394;DHT22;7795;47.986;11.868;2023-05-07T10:11:32;23.30;63.20
15394;DHT22;7795;47.986;11.868;2023-05-07T10:14:01;23.40;63.30
15394;DHT22;7795;47.986;11.868;2023-05-07T10:16:28;23.40;63.00
15394;DHT22;7795;47.986;11.868;2023-05-07T10:18:56;23.50;63.70
15394;DHT22;7795;47.986;11.868;2023-05-07T10:21:23;23.60;64.60
15394;DHT22;7795;47.986;11.868;2023-05-07T10:23:50;23.60;63.10
15394;DHT22;7795;47.986;11.868;2023-05-07T10:26:17;23.70;62.50
15394;DHT22;7795;47.986;11.868;2023-05-07T10:28:46;23.80;62.30
15394;DHT22;7795;47.986;11.868;2023-05-07T10:31:27;23.90;62.10
15394;DHT22;7795;47.986;11.868;2023-05-07T10:33:57;23.90;61.00
15394;DHT22;7795;47.986;11.868;2023-05-07T10:36:23;24.00;61.20
15394;DHT22;7795;47.986;11.868;2023-05-07T10:38:50;24.10;60.80
15394;DHT22;7795;47.986;11.868;2023-05-07T10:41:16;24.10;60.50
15394;DHT22;7795;47.986;11.868;2023-05-07T10:43:45;24.20;60.70
15394;DHT22;7795;47.986;11.868;2023-05-07T10:46:14;24.20;61.00
15394;DHT22;7795;47.986;11.868;2023-05-07T10:49:20;24.30;60.70
15394;DHT22;7795;47.986;11.868;2023-05-07T10:52:13;24.30;59.30
15394;DHT22;7795;47.986;11.868;2023-05-07T10:54:40;24.40;59.20
15394;DHT22;7795;47.986;11.868;2023-05-07T11:00:41;24.50;58.40
15394;DHT22;7795;47.986;11.868;2023-05-07T11:03:07;24.60;59.00
15394;DHT22;7795;47.986;11.868;2023-05-07T11:05:35;24.70;59.50
15394;DHT22;7795;47.986;11.868;2023-05-07T11:08:02;24.70;59.20
15394;DHT22;7795;47.986;11.868;2023-05-07T11:10:50;24.80;59.20
15394;DHT22;7795;47.986;11.868;2023-05-07T11:13:17;24.90;59.00
15394;DHT22;7795;47.986;11.868;2023-05-07T11:15:44;24.90;59.20
15394;DHT22;7795;47.986;11.868;2023-05-07T11:18:12;25.00;59.00
15394;DHT22;7795;47.986;11.868;2023-05-07T11:20:51;25.10;57.80
15394;DHT22;7795;47.986;11.868;2023-05-07T11:23:55;25.20;56.40
15394;DHT22;7795;47.986;11.868;2023-05-07T11:26:22;25.20;56.70
15394;DHT22;7795;47.986;11.868;2023-05-07T11:28:48;25.30;57.80
15394;DHT22;7795;47.986;11.868;2023-05-07T11:31:14;25.40;57.20
15394;DHT22;7795;47.986;11.868;2023-05-07T11:33:45;25.40;56.80
15394;DHT22;7795;47.986;11.868;2023-05-07T11:36:13;25.40;56.70
15394;DHT22;7795;47.986;11.868;2023-05-07T11:38:39;25.50;56.60
15394;DHT22;7795;47.986;11.868;2023-05-07T11:41:05;25.50;56.50
15394;DHT22;7795;47.986;11.868;2023-05-07T11:43:31;25.60;56.50
15394;DHT22;7795;47.986;11.868;2023-05-07T11:46:06;25.60;56.40
15394;DHT22;7795;47.986;11.868;2023-05-07T11:48:32;25.60;55.80
15394;DHT22;7795;47.986;11.868;2023-05-07T11:51:01;25.70;56.10
15394;DHT22;7795;47.986;11.868;2023-05-07T11:53:35;25.70;55.50
15394;DHT22;7795;47.986;11.868;2023-05-07T11:56:06;25.80;55.20
15394;DHT22;7795;47.986;11.868;2023-05-07T11:58:32;25.80;55.20
15394;DHT22;7795;47.986;11.868;2023-05-07T12:00:58;25.80;56.20
15394;DHT22;7795;47.986;11.868;2023-05-07T12:03:23;25.80;55.40
15394;DHT22;7795;47.986;11.868;2023-05-07T12:05:49;25.80;55.50
15394;DHT22;7795;47.986;11.868;2023-05-07T12:08:15;25.80;55.20
15394;DHT22;7795;47.986;11.868;2023-05-07T12:10:43;25.90;55.20
15394;DHT22;7795;47.986;11.868;2023-05-07T12:13:14;25.90;55.70
15394;DHT22;7795;47.986;11.868;2023-05-07T12:15:40;25.90;55.70
15394;DHT22;7795;47.986;11.868;2023-05-07T12:18:06;25.90;55.30
15394;DHT22;7795;47.986;11.868;2023-05-07T12:20:33;26.00;55.20
15394;DHT22;7795;47.986;11.868;2023-05-07T12:22:59;26.10;55.00
15394;DHT22;7795;47.986;11.868;2023-05-07T12:25:26;26.00;54.90
15394;DHT22;7795;47.986;11.868;2023-05-07T12:27:53;26.10;54.70
15394;DHT22;7795;47.986;11.868;2023-05-07T12:30:19;26.10;54.50
15394;DHT22;7795;47.986;11.868;2023-05-07T12:32:45;26.10;54.40
15394;DHT22;7795;47.986;11.868;2023-05-07T12:35:11;26.20;54.40
15394;DHT22;7795;47.986;11.868;2023-05-07T12:37:36;26.20;54.10
15394;DHT22;7795;47.986;11.868;2023-05-07T12:40:06;26.20;54.10
15394;DHT22;7795;47.986;11.868;2023-05-07T12:42:35;26.20;54.60
15394;DHT22;7795;47.986;11.868;2023-05-07T12:45:09;26.20;54.40
15394;DHT22;7795;47.986;11.868;2023-05-07T12:47:35;26.20;53.80
15394;DHT22;7795;47.986;11.868;2023-05-07T12:50:02;26.20;54.20
15394;DHT22;7795;47.986;11.868;2023-05-07T12:52:28;26.20;54.20
15394;DHT22;7795;47.986;11.868;2023-05-07T12:54:54;26.20;54.20
15394;DHT22;7795;47.986;11.868;2023-05-07T12:57:20;26.30;54.40
15394;DHT22;7795;47.986;11.868;2023-05-07T12:59:46;26.30;54.30
15394;DHT22;7795;47.986;11.868;2023-05-07T13:02:14;26.30;54.30
15394;DHT22;7795;47.986;11.868;2023-05-07T13:04:39;26.30;54.70
15394;DHT22;7795;47.986;11.868;2023-05-07T13:07:05;26.30;54.00
15394;DHT22;7795;47.986;11.868;2023-05-07T13:09:31;26.40;53.80
15394;DHT22;7795;47.986;11.868;2023-05-07T13:11:57;26.40;53.60
15394;DHT22;7795;47.986;11.868;2023-05-07T13:14:26;26.40;53.30
15394;DHT22;7795;47.986;11.868;2023-05-07T13:16:52;26.40;53.30
15394;DHT22;7795;47.986;11.868;2023-05-07T13:19:19;26.40;52.60
15394;DHT22;7795;47.986;11.868;2023-05-07T13:21:45;26.40;52.40
15394;DHT22;7795;47.986;11.868;2023-05-07T13:24:10;26.40;52.30
15394;DHT22;7795;47.986;11.868;2023-05-07T13:26:36;26.40;52.30
15394;DHT22;7795;47.986;11.868;2023-05-07T13:29:02;26.40;52.30
15394;DHT22;7795;47.986;11.868;2023-05-07T13:31:28;26.40;52.10
15394;DHT22;7795;47.986;11.868;2023-05-07T13:33:53;26.30;52.40
15394;DHT22;7795;47.986;11.868;2023-05-07T13:36:22;26.30;52.50
15394;DHT22;7795;47.986;11.868;2023-05-07T13:38:49;26.30;52.80
15394;DHT22;7795;47.986;11.868;2023-05-07T13:41:15;26.30;52.20
15394;DHT22;7795;47.986;11.868;2023-05-07T13:43:41;26.30;52.10
15394;DHT22;7795;47.986;11.868;2023-05-07T13:46:07;26.30;52.20
15394;DHT22;7795;47.986;11.868;2023-05-07T13:48:32;26.30;52.20
15394;DHT22;7795;47.986;11.868;2023-05-07T13:50:58;26.30;52.10
15394;DHT22;7795;47.986;11.868;2023-05-07T13:53:25;26.30;51.70
15394;DHT22;7795;47.986;11.868;2023-05-07T13:55:51;26.30;51.70
15394;DHT22;7795;47.986;11.868;2023-05-07T13:58:17;26.30;51.60
15394;DHT22;7795;47.986;11.868;2023-05-07T14:00:42;26.30;52.10
15394;DHT22;7795;47.986;11.868;2023-05-07T14:03:09;26.30;51.60
15394;DHT22;7795;47.986;11.868;2023-05-07T14:05:34;26.30;52.10
15394;DHT22;7795;47.986;11.868;2023-05-07T14:08:01;26.30;52.00
15394;DHT22;7795;47.986;11.868;2023-05-07T14:10:28;26.30;52.00
15394;DHT22;7795;47.986;11.868;2023-05-07T14:12:54;26.30;52.10
15394;DHT22;7795;47.986;11.868;2023-05-07T14:15:20;26.30;51.40
15394;DHT22;7795;47.986;11.868;2023-05-07T14:17:46;26.20;51.00
15394;DHT22;7795;47.986;11.868;2023-05-07T14:20:12;26.20;51.10
15394;DHT22;7795;47.986;11.868;2023-05-07T14:22:38;26.20;51.60
15394;DHT22;7795;47.986;11.868;2023-05-07T14:25:05;26.20;51.60
15394;DHT22;7795;47.986;11.868;2023-05-07T14:27:32;26.10;51.80
15394;DHT22;7795;47.986;11.868;2023-05-07T14:29:58;26.20;51.80
15394;DHT22;7795;47.986;11.868;2023-05-07T14:32:24;26.20;52.30
15394;DHT22;7795;47.986;11.868;2023-05-07T14:34:50;26.10;52.00
15394;DHT22;7795;47.986;11.868;2023-05-07T14:37:15;26.10;52.30
15394;DHT22;7795;47.986;11.868;2023-05-07T14:39:41;26.00;52.20
15394;DHT22;7795;47.986;11.868;2023-05-07T14:42:07;26.00;52.00
15394;DHT22;7795;47.986;11.868;2023-05-07T14:44:38;26.00;51.80
15394;DHT22;7795;47.986;11.868;2023-05-07T14:47:07;25.90;51.90
15394;DHT22;7795;47.986;11.868;2023-05-07T14:49:33;25.90;52.30
15394;DHT22;7795;47.986;11.868;2023-05-07T14:51:59;25.90;52.40
15394;DHT22;7795;47.986;11.868;2023-05-07T14:54:25;25.80;52.00
15394;DHT22;7795;47.986;11.868;2023-05-07T14:56:51;25.80;51.90
15394;DHT22;7795;47.986;11.868;2023-05-07T14:59:18;25.70;52.20
15394;DHT22;7795;47.986;11.868;2023-05-07T15:01:47;25.70;51.90
15394;DHT22;7795;47.986;11.868;2023-05-07T15:04:13;25.70;51.80
15394;DHT22;7795;47.986;11.868;2023-05-07T15:06:39;25.60;51.80
15394;DHT22;7795;47.986;11.868;2023-05-07T15:09:05;25.60;52.20
15394;DHT22;7795;47.986;11.868;2023-05-07T15:11:30;25.60;51.70
15394;DHT22;7795;47.986;11.868;2023-05-07T15:13:56;25.60;51.80
15394;DHT22;7795;47.986;11.868;2023-05-07T15:16:22;25.50;52.10
15394;DHT22;7795;47.986;11.868;2023-05-07T15:18:49;25.50;52.20
15394;DHT22;7795;47.986;11.868;2023-05-07T15:21:15;25.50;51.70
15394;DHT22;7795;47.986;11.868;2023-05-07T15:23:41;25.50;52.00
15394;DHT22;7795;47.986;11.868;2023-05-07T15:26:07;25.40;51.70
15394;DHT22;7795;47.986;11.868;2023-05-07T15:28:33;25.40;51.90
15394;DHT22;7795;47.986;11.868;2023-05-07T15:30:59;25.40;52.10